createdAt,value
2018-11-11T00:00:40.636Z,23
2018-11-11T00:10:39.851Z,22
2018-11-11T00:20:39.112Z,22.3
2018-11-11T00:30:38.267Z,22.4
2018-11-11T00:40:37.480Z,22.6
2018-11-11T00:50:36.692Z,23.3
2018-11-11T01:00:35.901Z,23.2
2018-11-11T01:10:35.110Z,22.8
2018-11-11T01:20:34.320Z,22.3
2018-11-11T01:30:33.529Z,22.5
2018-11-11T01:40:32.734Z,22.6
2018-11-11T01:50:31.947Z,23.2
2018-11-11T02:00:31.153Z,23.6
2018-11-11T02:10:30.368Z,23.4
2018-11-11T02:20:29.576Z,23.1
2018-11-11T02:30:28.785Z,22.1
2018-11-11T02:40:27.990Z,22.4
2018-11-11T02:50:27.199Z,22.6
2018-11-11T03:00:26.412Z,23.3
2018-11-11T03:10:25.621Z,23.1
2018-11-11T03:20:24.829Z,22.4
2018-11-11T03:30:24.035Z,22.3
2018-11-11T03:40:23.253Z,22.5
2018-11-11T03:50:22.462Z,22.8
2018-11-11T04:00:21.672Z,23.3
2018-11-11T04:10:20.945Z,22.4
2018-11-11T04:20:20.080Z,22.4
2018-11-11T04:30:19.299Z,22.6
2018-11-11T04:40:18.497Z,22.6
2018-11-11T04:50:17.712Z,23.4
2018-11-11T05:00:16.925Z,23.7
2018-11-11T05:10:16.124Z,22.9
2018-11-11T05:20:15.335Z,22.4
2018-11-11T05:30:14.549Z,22.4
2018-11-11T05:40:13.751Z,22.6
2018-11-11T05:50:12.963Z,23.3
2018-11-11T06:00:12.168Z,22.8
2018-11-11T06:10:11.421Z,22.1
2018-11-11T06:20:10.578Z,22.3
2018-11-11T06:30:09.787Z,22.6
2018-11-11T06:40:09.000Z,23
2018-11-11T06:50:08.211Z,22.9
2018-11-11T07:00:07.411Z,23.1
2018-11-11T07:10:06.624Z,23.3
2018-11-11T07:20:05.835Z,23.7
2018-11-11T07:30:05.043Z,23.8
2018-11-11T07:40:04.256Z,23.7
2018-11-11T07:50:03.464Z,23.9
2018-11-11T08:00:02.676Z,24.3
2018-11-11T08:10:01.878Z,24.9
2018-11-11T08:20:01.093Z,25.2
2018-11-11T08:30:00.299Z,25.2
2018-11-11T08:39:59.509Z,25.3
2018-11-11T08:49:58.729Z,25.4
2018-11-11T08:59:57.931Z,25.7
2018-11-11T09:09:57.141Z,25.9
2018-11-11T09:19:56.357Z,26
2018-11-11T09:29:55.569Z,26
2018-11-11T09:39:54.777Z,23.9
2018-11-11T09:49:53.992Z,23.9
2018-11-11T09:59:53.288Z,24.1
2018-11-11T10:09:52.413Z,24.4
2018-11-11T10:19:51.626Z,24.4
2018-11-11T10:29:50.834Z,24.6
2018-11-11T10:39:50.044Z,24.5
2018-11-11T10:49:49.255Z,23.9
2018-11-11T10:59:48.467Z,23.8
2018-11-11T11:09:47.676Z,24.2
2018-11-11T11:19:46.887Z,24.2
2018-11-11T11:29:46.107Z,24.2
2018-11-11T11:39:45.306Z,24.4
2018-11-11T11:49:44.534Z,24.3
2018-11-11T11:59:43.729Z,24.1
2018-11-11T12:09:43.035Z,24.1
2018-11-11T12:19:42.152Z,24
2018-11-11T12:29:41.358Z,23.8
2018-11-11T12:39:40.670Z,23.9
2018-11-11T12:49:39.784Z,23.9
2018-11-11T12:59:38.998Z,23.9
2018-11-11T13:09:38.210Z,23.9
2018-11-11T13:19:37.419Z,23.8
2018-11-11T13:29:36.631Z,24.3
2018-11-11T13:39:35.840Z,24.2
2018-11-11T13:49:35.055Z,24.2
2018-11-11T13:59:34.262Z,24.3
2018-11-11T14:09:33.471Z,24
2018-11-11T14:19:32.745Z,23.6
2018-11-11T14:29:31.891Z,23.3
2018-11-11T14:39:31.107Z,23.3
2018-11-11T14:49:30.317Z,23.3
2018-11-11T14:59:29.529Z,22.6
2018-11-11T15:09:28.740Z,22.6
2018-11-11T15:19:28.196Z,23.4
2018-11-11T15:29:27.165Z,23.1
2018-11-11T15:39:26.372Z,23
2018-11-11T15:49:25.592Z,22.8
2018-11-11T15:59:24.897Z,23.1
2018-11-11T16:09:24.040Z,23
2018-11-11T16:19:23.228Z,23
2018-11-11T16:29:22.444Z,22.9
2018-11-11T16:39:21.750Z,23.1
2018-11-11T16:49:20.860Z,23.3
2018-11-11T16:59:20.080Z,22.6
2018-11-11T17:09:19.288Z,23.3
2018-11-11T17:19:18.505Z,23.4
2018-11-11T17:29:17.750Z,22.9
2018-11-11T17:39:16.993Z,22.8
2018-11-11T17:49:16.146Z,22.4
2018-11-11T17:59:15.361Z,22.5
2018-11-11T18:09:14.571Z,22.3
2018-11-11T18:19:13.782Z,22.3
2018-11-11T18:29:13.001Z,22.6
2018-11-11T18:39:12.219Z,23.3
2018-11-11T18:49:11.420Z,23.3
2018-11-11T18:59:10.706Z,22.9
2018-11-11T19:09:09.850Z,22.9
2018-11-11T19:19:09.063Z,23
2018-11-11T19:29:08.273Z,23.1
2018-11-11T19:39:07.484Z,22.9
2018-11-11T19:49:06.691Z,22.9
2018-11-11T19:59:05.907Z,23.3
2018-11-11T20:09:05.118Z,22.7
2018-11-11T20:19:04.328Z,22.9
2018-11-11T20:29:03.540Z,23.3
2018-11-11T20:39:02.801Z,23.3
2018-11-11T20:49:01.963Z,23.3
2018-11-11T20:59:01.175Z,22.9
2018-11-11T21:09:00.423Z,22.8
2018-11-11T21:18:59.592Z,22.9
2018-11-11T21:28:58.801Z,23.1
2018-11-11T21:38:58.017Z,22.9
2018-11-11T21:48:57.231Z,22.9
2018-11-11T21:58:56.438Z,23
2018-11-11T22:08:55.738Z,22.4
2018-11-11T22:18:54.865Z,22.4
2018-11-11T22:28:54.068Z,22.7
2018-11-11T22:38:53.287Z,23.4
2018-11-11T22:48:52.500Z,23.1
2018-11-11T22:58:51.749Z,23.1
2018-11-11T23:08:50.911Z,23
2018-11-11T23:18:50.128Z,22.4
2018-11-11T23:28:49.337Z,22.4
2018-11-11T23:38:48.544Z,22.5
2018-11-11T23:48:47.755Z,22.6
2018-11-11T23:58:46.974Z,23.4
